Irwin, Iowa
Current Conditions -  °F | °C
As of 8:35 AM on Thursday 23 Oct 2014 (Local Time) from KHNR Reporting Station
Haze Haze  
Wind Chill: 59°   Ceiling: 2000
Heat Index: 59°   Visibility: 1.5mi
Dew Point: 59°   Wind: 7mph
Humidity: 100%   Direction: 240°WSW
Pressure: 30.07"   Gusts: NA
Location:  41.79°N, 95.21°W
Report Text: KHNR 231335Z AUTO 24006KT 1 1/2SM BR SCT005 OVC020 15/15 A3007 RMK AO2
Loading
Personal Weather Stations






























Interactive Weather Map
Tropical Storm Tracking
New forecast layout! Learn more

10-Day Weather Forecast

Advertisements
Track Severe Weather on mobile